createdAt,value
2022-08-19T00:02:16.053Z,9.57
2022-08-19T00:04:43.312Z,9.38
2022-08-19T00:07:10.633Z,9.32
2022-08-19T00:09:37.977Z,9.30
2022-08-19T00:12:05.713Z,9.75
2022-08-19T00:14:33.184Z,9.15
2022-08-19T00:17:01.323Z,9.27
2022-08-19T00:19:28.715Z,10.07
2022-08-19T00:21:57.430Z,9.95
2022-08-19T00:24:25.334Z,9.15
2022-08-19T00:26:53.493Z,9.98
2022-08-19T00:29:22.073Z,9.45
2022-08-19T00:31:51.298Z,9.43
2022-08-19T00:34:18.858Z,9.85
2022-08-19T00:36:46.732Z,9.65
2022-08-19T00:39:15.353Z,9.80
2022-08-19T00:41:45.853Z,9.70
2022-08-19T00:44:26.622Z,9.55
2022-08-19T00:46:58.664Z,9.45
2022-08-19T00:49:35.741Z,9.23
2022-08-19T00:52:17.793Z,9.98
2022-08-19T00:54:47.832Z,9.85
2022-08-19T00:57:23.393Z,9.73
2022-08-19T01:00:01.407Z,10.50
2022-08-19T01:02:31.473Z,9.75
2022-08-19T01:05:00.356Z,9.43
2022-08-19T01:07:27.773Z,10.00
2022-08-19T01:09:55.513Z,9.90
2022-08-19T01:12:23.614Z,9.63
2022-08-19T01:14:51.714Z,9.77
2022-08-19T01:17:20.239Z,9.80
2022-08-19T01:19:49.534Z,9.10
2022-08-19T01:22:16.703Z,9.77
2022-08-19T01:24:49.818Z,9.95
2022-08-19T01:27:18.113Z,9.90
2022-08-19T01:29:46.733Z,9.75
2022-08-19T01:32:32.429Z,8.82
2022-08-19T01:35:03.154Z,9.15
2022-08-19T01:37:31.791Z,10.00
2022-08-19T01:39:59.203Z,9.13
2022-08-19T01:42:30.284Z,9.32
2022-08-19T01:44:58.213Z,9.52
2022-08-19T01:47:25.533Z,9.75
2022-08-19T01:49:52.973Z,9.52
2022-08-19T01:52:20.800Z,10.05
2022-08-19T01:54:48.053Z,9.48
2022-08-19T01:57:15.977Z,10.07
2022-08-19T01:59:45.553Z,9.68
2022-08-19T02:02:12.774Z,9.05
2022-08-19T02:04:40.213Z,9.15
2022-08-19T02:07:09.251Z,9.88
2022-08-19T02:09:36.893Z,9.88
2022-08-19T02:12:05.697Z,9.25
2022-08-19T02:14:34.933Z,9.57
2022-08-19T02:17:02.293Z,9.32
2022-08-19T02:19:29.624Z,9.60
2022-08-19T02:21:56.876Z,9.55
2022-08-19T02:24:24.573Z,9.35
2022-08-19T02:26:52.383Z,9.98
2022-08-19T02:29:19.676Z,9.20
2022-08-19T02:31:47.073Z,8.80
2022-08-19T02:34:14.333Z,9.00
2022-08-19T02:36:42.317Z,9.50
2022-08-19T02:39:11.113Z,9.68
2022-08-19T02:41:38.973Z,8.98
2022-08-19T02:44:26.477Z,9.50
2022-08-19T02:46:53.564Z,8.93
2022-08-19T02:49:21.223Z,8.68
2022-08-19T02:51:48.606Z,8.90
2022-08-19T02:54:17.083Z,8.98
2022-08-19T02:56:46.524Z,8.98
2022-08-19T02:59:13.823Z,9.02
2022-08-19T03:01:42.990Z,8.75
2022-08-19T03:04:13.583Z,9.05
2022-08-19T03:06:42.982Z,8.80
2022-08-19T03:09:10.963Z,8.50
2022-08-19T03:11:38.644Z,9.18
2022-08-19T03:14:07.908Z,8.82
2022-08-19T03:16:42.223Z,9.13
2022-08-19T03:19:09.583Z,8.50
2022-08-19T03:21:36.827Z,8.93
2022-08-19T03:24:07.404Z,8.38
2022-08-19T03:26:35.286Z,9.13
2022-08-19T03:29:06.726Z,8.82
2022-08-19T03:31:43.488Z,9.57
2022-08-19T03:34:29.935Z,8.93
2022-08-19T03:36:59.456Z,8.95
2022-08-19T03:39:28.035Z,8.75
2022-08-19T03:42:31.691Z,8.88
2022-08-19T03:44:48.554Z,8.73
2022-08-19T03:47:16.731Z,9.18
2022-08-19T03:49:44.035Z,8.48
2022-08-19T03:52:11.464Z,8.80
2022-08-19T03:54:39.457Z,8.75
2022-08-19T03:57:07.375Z,9.02
2022-08-19T03:59:37.384Z,9.02
2022-08-19T04:02:10.278Z,8.73
2022-08-19T04:04:39.634Z,8.95
2022-08-19T04:07:07.534Z,9.25
2022-08-19T04:09:37.765Z,9.75
2022-08-19T04:12:06.644Z,8.75
2022-08-19T04:14:34.913Z,9.90
2022-08-19T04:17:06.011Z,9.35
2022-08-19T04:19:35.551Z,8.85
2022-08-19T04:22:03.906Z,9.18
2022-08-19T04:24:31.494Z,9.48
2022-08-19T04:27:01.867Z,8.45
2022-08-19T04:29:31.382Z,9.20
2022-08-19T04:31:59.796Z,8.85
2022-08-19T04:34:30.704Z,8.57
2022-08-19T04:36:59.579Z,8.98
2022-08-19T04:39:51.205Z,9.32
2022-08-19T04:42:38.055Z,9.60
2022-08-19T04:45:09.409Z,9.07
2022-08-19T04:47:48.241Z,8.63
2022-08-19T04:50:27.463Z,8.70
2022-08-19T04:52:56.630Z,8.55
2022-08-19T04:55:26.848Z,9.40
2022-08-19T04:57:54.975Z,8.85
2022-08-19T05:00:22.627Z,8.77
2022-08-19T05:02:50.439Z,8.38
2022-08-19T05:05:18.344Z,8.25
2022-08-19T05:07:45.610Z,8.35
2022-08-19T05:10:13.854Z,9.13
2022-08-19T05:12:41.194Z,8.15
2022-08-19T05:15:12.273Z,8.18
2022-08-19T05:17:59.597Z,8.93
2022-08-19T05:20:45.329Z,8.40
2022-08-19T05:23:21.892Z,8.40
2022-08-19T05:25:51.134Z,8.27
2022-08-19T05:28:19.591Z,7.93
2022-08-19T05:30:47.768Z,8.45
2022-08-19T05:33:15.464Z,7.93
2022-08-19T05:35:42.684Z,7.95
2022-08-19T05:38:10.068Z,7.90
2022-08-19T05:40:38.241Z,8.13
2022-08-19T05:43:07.945Z,7.90
2022-08-19T05:45:41.385Z,8.00
2022-08-19T05:48:12.167Z,8.30
2022-08-19T05:50:43.264Z,8.57
2022-08-19T05:53:10.484Z,8.80
2022-08-19T05:55:39.645Z,9.30
2022-08-19T05:58:08.779Z,9.23
2022-08-19T06:00:37.584Z,9.35
2022-08-19T06:03:12.394Z,7.45
2022-08-19T06:05:43.538Z,7.20
2022-08-19T06:08:19.644Z,7.93
2022-08-19T06:10:47.015Z,8.07
2022-08-19T06:13:14.185Z,8.50
2022-08-19T06:15:45.033Z,8.63
2022-08-19T06:18:12.834Z,6.80
2022-08-19T06:20:55.539Z,7.40
2022-08-19T06:23:24.406Z,6.75
2022-08-19T06:25:51.845Z,7.50
2022-08-19T06:28:19.287Z,6.75
2022-08-19T06:30:46.610Z,7.50
2022-08-19T06:33:13.923Z,6.80
2022-08-19T06:35:42.828Z,7.35
2022-08-19T06:38:10.651Z,6.85
2022-08-19T06:40:39.470Z,6.40
2022-08-19T06:43:08.478Z,6.60
2022-08-19T06:45:39.900Z,6.22
2022-08-19T06:48:08.102Z,6.88
2022-08-19T06:50:39.337Z,5.90
2022-08-19T06:53:07.080Z,6.63
2022-08-19T06:55:34.325Z,5.93
2022-08-19T06:58:05.476Z,5.90
2022-08-19T07:00:33.204Z,6.57
2022-08-19T07:03:06.036Z,6.57
2022-08-19T07:08:04.780Z,6.13
2022-08-19T07:10:33.916Z,5.63
2022-08-19T07:13:01.730Z,6.25
2022-08-19T07:15:28.974Z,6.80
2022-08-19T07:17:56.474Z,6.50
2022-08-19T07:20:28.325Z,6.28
2022-08-19T07:22:56.183Z,5.73
2022-08-19T07:25:32.170Z,6.10
2022-08-19T07:28:01.620Z,6.18
2022-08-19T07:30:29.296Z,5.93
2022-08-19T07:32:57.377Z,5.75
2022-08-19T07:35:24.777Z,5.80
2022-08-19T07:37:51.998Z,5.80
2022-08-19T07:40:19.296Z,5.15
2022-08-19T07:42:46.603Z,4.70
2022-08-19T07:45:14.093Z,4.80
2022-08-19T07:47:49.995Z,5.57
2022-08-19T07:50:20.559Z,5.53
2022-08-19T07:52:50.678Z,4.60
2022-08-19T07:55:41.496Z,5.40
2022-08-19T07:58:09.331Z,5.32
2022-08-19T08:00:37.066Z,5.30
2022-08-19T08:03:04.517Z,4.60
2022-08-19T08:05:50.255Z,4.63
2022-08-19T08:08:44.390Z,4.65
2022-08-19T08:11:20.081Z,4.72
2022-08-19T08:14:01.347Z,4.72
2022-08-19T08:16:34.729Z,4.70
2022-08-19T08:19:02.087Z,4.80
2022-08-19T08:21:29.344Z,5.03
2022-08-19T08:23:57.066Z,4.65
2022-08-19T08:26:24.746Z,5.20
2022-08-19T08:28:52.779Z,5.00
2022-08-19T08:31:20.639Z,4.93
2022-08-19T08:33:48.204Z,4.53
2022-08-19T08:36:16.015Z,4.10
2022-08-19T08:38:46.845Z,4.13
2022-08-19T08:41:28.997Z,4.45
2022-08-19T08:43:58.455Z,4.03
2022-08-19T08:46:41.176Z,4.22
2022-08-19T08:49:32.437Z,4.72
2022-08-19T08:52:07.996Z,4.38
2022-08-19T08:54:48.985Z,4.32
2022-08-19T08:57:49.783Z,4.50
2022-08-19T09:00:22.467Z,4.30
2022-08-19T09:02:50.916Z,4.60
2022-08-19T09:05:22.724Z,4.53
2022-08-19T09:07:59.304Z,4.55
2022-08-19T09:10:45.068Z,4.47
2022-08-19T09:13:37.422Z,4.75
2022-08-19T09:16:15.783Z,4.57
2022-08-19T09:18:49.985Z,5.13
2022-08-19T09:21:17.786Z,4.72
2022-08-19T09:23:45.445Z,4.32
2022-08-19T09:26:21.925Z,4.93
2022-08-19T09:28:53.441Z,4.93
2022-08-19T09:31:24.715Z,5.03
2022-08-19T09:33:53.275Z,4.82
2022-08-19T09:36:34.633Z,4.82
2022-08-19T09:39:02.345Z,4.55
2022-08-19T09:41:29.950Z,5.20
2022-08-19T09:43:59.026Z,5.53
2022-08-19T09:46:29.430Z,5.88
2022-08-19T09:49:06.287Z,5.57
2022-08-19T09:51:35.013Z,5.45
2022-08-19T09:54:06.506Z,5.30
2022-08-19T09:56:34.349Z,5.50
2022-08-19T09:59:04.652Z,4.90
2022-08-19T10:01:33.191Z,5.10
2022-08-19T10:04:07.663Z,5.07
2022-08-19T10:06:46.760Z,4.93
2022-08-19T10:09:16.425Z,5.22
2022-08-19T10:11:54.621Z,5.07
2022-08-19T10:14:24.775Z,5.20
2022-08-19T10:16:52.988Z,5.22
2022-08-19T10:19:25.634Z,5.70
2022-08-19T10:21:55.534Z,5.13
2022-08-19T10:24:29.171Z,5.57
2022-08-19T10:26:59.618Z,5.53
2022-08-19T10:29:33.024Z,5.20
2022-08-19T10:32:09.921Z,4.88
2022-08-19T10:34:48.144Z,5.03
2022-08-19T10:37:23.771Z,5.15
2022-08-19T10:39:56.299Z,5.20
2022-08-19T10:42:23.922Z,5.13
2022-08-19T10:44:52.012Z,5.32
2022-08-19T10:47:24.674Z,5.18
2022-08-19T10:50:12.589Z,5.30
2022-08-19T10:52:49.203Z,5.10
2022-08-19T10:55:41.291Z,5.32
2022-08-19T10:58:17.694Z,5.00
2022-08-19T11:00:52.134Z,5.25
2022-08-19T11:03:19.817Z,5.43
2022-08-19T11:05:47.149Z,5.30
2022-08-19T11:08:22.095Z,5.70
2022-08-19T11:10:58.696Z,5.00
2022-08-19T11:13:26.233Z,4.80
2022-08-19T11:16:15.053Z,5.30
2022-08-19T11:18:52.050Z,5.10
2022-08-19T11:21:25.283Z,4.93
2022-08-19T11:23:55.133Z,4.68
2022-08-19T11:26:23.181Z,4.80
2022-08-19T11:28:55.631Z,5.22
2022-08-19T11:31:29.195Z,4.60
2022-08-19T11:34:04.328Z,4.90
2022-08-19T11:36:33.763Z,5.38
2022-08-19T11:39:02.008Z,4.32
2022-08-19T11:41:29.370Z,4.53
2022-08-19T11:43:57.068Z,4.43
2022-08-19T11:46:26.366Z,4.72
2022-08-19T11:48:53.733Z,4.75
2022-08-19T11:51:25.731Z,5.43
2022-08-19T11:53:55.319Z,5.32
2022-08-19T11:56:23.882Z,4.50
2022-08-19T11:58:53.229Z,4.82
2022-08-19T12:01:22.711Z,4.72
2022-08-19T12:03:52.050Z,5.05
2022-08-19T17:59:48.880Z,5.50
2022-08-19T18:02:19.052Z,5.50
2022-08-19T18:04:49.497Z,5.18
2022-08-19T18:07:21.828Z,5.22
2022-08-19T18:09:52.647Z,6.10
2022-08-19T18:12:29.515Z,5.60
2022-08-19T18:14:59.239Z,5.18
2022-08-19T18:17:26.601Z,5.90
2022-08-19T18:19:53.941Z,5.43
2022-08-19T18:22:25.560Z,5.00
2022-08-19T18:24:53.436Z,5.70
2022-08-19T18:27:21.140Z,5.53
2022-08-19T18:29:48.698Z,5.80
2022-08-19T18:32:23.551Z,5.40
2022-08-19T18:34:51.764Z,5.43
2022-08-19T18:37:19.177Z,5.65
2022-08-19T18:40:05.028Z,5.32
2022-08-19T18:42:50.887Z,5.53
2022-08-19T18:45:36.595Z,5.47
2022-08-19T18:48:27.396Z,5.40
2022-08-19T18:50:59.919Z,5.28
2022-08-19T18:53:30.150Z,5.03
2022-08-19T18:55:58.391Z,5.40
2022-08-19T18:58:34.191Z,5.70
2022-08-19T19:01:13.258Z,5.63
2022-08-19T19:03:50.653Z,5.30
2022-08-19T19:06:25.761Z,5.88
2022-08-19T19:08:55.397Z,5.35
2022-08-19T19:11:31.838Z,5.88
2022-08-19T19:14:02.446Z,5.45
2022-08-19T19:16:31.460Z,6.18
2022-08-19T19:18:59.395Z,5.30
2022-08-19T19:21:29.905Z,5.47
2022-08-19T19:24:00.720Z,5.55
2022-08-19T19:26:28.260Z,5.43
2022-08-19T19:28:55.657Z,6.07
2022-08-19T19:31:28.995Z,5.40
2022-08-19T19:33:56.988Z,5.53
2022-08-19T19:36:24.696Z,5.18
2022-08-19T19:38:52.645Z,5.53
2022-08-19T19:41:24.481Z,5.72
2022-08-19T19:44:09.875Z,5.72
2022-08-19T19:46:42.860Z,5.95
2022-08-19T19:49:12.000Z,6.10
2022-08-19T19:51:41.170Z,5.65
2022-08-19T19:54:13.949Z,5.35
2022-08-19T19:56:45.552Z,5.93
2022-08-19T19:59:13.381Z,5.75
2022-08-19T20:01:47.005Z,5.50
2022-08-19T20:04:15.530Z,6.05
2022-08-19T20:06:44.608Z,5.75
2022-08-19T20:09:17.569Z,5.68
2022-08-19T20:11:53.761Z,6.05
2022-08-19T20:14:31.696Z,5.60
2022-08-19T20:17:00.162Z,6.00
2022-08-19T20:19:34.292Z,5.95
2022-08-19T20:22:02.095Z,5.70
2022-08-19T20:24:35.578Z,5.97
2022-08-19T20:27:04.698Z,6.20
2022-08-19T20:29:38.863Z,5.88
2022-08-19T20:32:09.462Z,6.10
2022-08-19T20:34:37.513Z,6.38
2022-08-19T20:37:05.113Z,5.85
2022-08-19T20:39:32.525Z,5.90
2022-08-19T20:42:00.961Z,5.72
2022-08-19T20:44:28.730Z,6.32
2022-08-19T20:46:59.369Z,6.07
2022-08-19T20:49:29.576Z,6.15
2022-08-19T20:51:57.800Z,6.22
2022-08-19T20:54:25.433Z,6.50
2022-08-19T20:56:53.211Z,5.82
2022-08-19T20:59:21.938Z,6.00
2022-08-19T21:01:52.014Z,6.10
2022-08-19T21:04:21.660Z,5.88
2022-08-19T21:06:50.731Z,6.20
2022-08-19T21:09:18.407Z,6.15
2022-08-19T21:11:45.765Z,6.32
2022-08-19T21:14:13.302Z,5.95
2022-08-19T21:16:40.700Z,6.00
2022-08-19T21:19:07.950Z,6.25
2022-08-19T21:21:35.296Z,6.28
2022-08-19T21:24:02.881Z,5.85
2022-08-19T21:26:30.234Z,5.97
2022-08-19T21:28:57.617Z,5.78
2022-08-19T21:31:25.096Z,5.85
2022-08-19T21:33:52.457Z,6.18
2022-08-19T21:36:19.832Z,6.00
2022-08-19T21:38:47.434Z,5.47
2022-08-19T21:41:15.037Z,5.57
2022-08-19T21:43:42.415Z,5.80
2022-08-19T21:46:10.103Z,6.20
2022-08-19T21:48:37.551Z,5.78
2022-08-19T21:51:05.070Z,6.35
2022-08-19T21:53:34.537Z,6.10
2022-08-19T21:56:06.754Z,6.53
2022-08-19T21:58:36.627Z,6.13
2022-08-19T22:01:08.184Z,5.75
2022-08-19T22:03:37.899Z,5.57
2022-08-19T22:06:05.927Z,5.93
2022-08-19T22:08:33.283Z,6.43
2022-08-19T22:11:00.663Z,5.35
2022-08-19T22:13:28.524Z,5.22
2022-08-19T22:15:55.897Z,5.63
2022-08-19T22:18:23.387Z,5.35
2022-08-19T22:20:50.849Z,6.10
2022-08-19T22:23:18.245Z,5.57
2022-08-19T22:25:47.378Z,6.30
2022-08-19T22:28:18.820Z,5.47
2022-08-19T22:30:51.260Z,5.40
2022-08-19T22:33:19.860Z,5.93
2022-08-19T22:35:48.330Z,5.57
2022-08-19T22:38:15.895Z,5.82
2022-08-19T22:40:47.292Z,5.78
2022-08-19T22:43:21.615Z,5.97
2022-08-19T22:45:51.014Z,5.22
2022-08-19T22:48:20.393Z,5.72
2022-08-19T22:51:09.048Z,6.03
2022-08-19T22:53:38.677Z,5.97
2022-08-19T22:56:10.872Z,6.00
2022-08-19T22:58:42.654Z,5.70
2022-08-19T23:01:27.452Z,5.47
2022-08-19T23:03:58.762Z,6.18
2022-08-19T23:06:33.282Z,5.55
2022-08-19T23:09:02.082Z,6.00
2022-08-19T23:11:38.155Z,5.72
2022-08-19T23:14:09.020Z,6.03
2022-08-19T23:16:36.299Z,5.78
2022-08-19T23:19:03.822Z,5.95
2022-08-19T23:21:31.216Z,5.43
2022-08-19T23:23:59.224Z,5.88
2022-08-19T23:26:26.524Z,5.43
2022-08-19T23:29:12.284Z,6.22
2022-08-19T23:31:39.527Z,5.80
2022-08-19T23:34:07.033Z,5.68
2022-08-19T23:36:34.977Z,5.13
2022-08-19T23:39:02.314Z,5.65
2022-08-19T23:41:29.634Z,5.90
2022-08-19T23:43:57.064Z,5.25
2022-08-19T23:46:28.549Z,5.13
2022-08-19T23:48:57.105Z,5.88
2022-08-19T23:51:26.710Z,5.78
2022-08-19T23:53:54.329Z,5.00
2022-08-19T23:56:21.840Z,5.53
2022-08-19T23:58:49.425Z,5.43
